Time;durP1;ratioP1;P1;durP2;ratioP2;P2;SDS_P1;SDS_P2;PMS_P1;PMS_P2;Temp;Humidity;BMP_temperature;BMP_pressure;BME280_temperature;BME280_humidity;BME280_pressure;Samples;Min_cycle;Max_cycle;Signal;HPM_P1;HPM_P2
2023/09/08 00:01:50;;;;;;;8.60;4.03;;;;;;;20.33;100.00;100477.19;5059121;28;20484;-89
2023/09/08 00:04:16;;;;;;;19.00;6.40;;;;;;;20.36;100.00;100478.59;5057704;28;20036;-89
2023/09/08 00:06:42;;;;;;;31.50;7.60;;;;;;;20.31;100.00;100481.91;5046802;28;20039;-89
2023/09/08 00:09:08;;;;;;;22.38;7.15;;;;;;;20.22;100.00;100485.84;5046454;28;20115;-89
2023/09/08 00:11:33;;;;;;;24.90;7.85;;;;;;;20.14;100.00;100482.38;5044529;28;20071;-87
2023/09/08 00:13:59;;;;;;;15.32;6.20;;;;;;;20.07;100.00;100477.00;5075871;28;20119;-87
2023/09/08 00:16:25;;;;;;;16.35;5.97;;;;;;;20.09;100.00;100484.84;5048865;28;20105;-89
2023/09/08 00:18:51;;;;;;;13.50;5.10;;;;;;;20.11;100.00;100479.25;5044635;28;20103;-89
2023/09/08 00:21:16;;;;;;;20.58;7.03;;;;;;;20.14;100.00;100476.16;5059253;28;20044;-89
2023/09/08 00:23:42;;;;;;;25.30;7.15;;;;;;;20.07;100.00;100468.09;5052129;28;20040;-89
2023/09/08 00:26:08;;;;;;;24.73;7.88;;;;;;;20.05;100.00;100467.50;5003804;28;20032;-89
2023/09/08 00:28:35;;;;;;;26.67;8.95;;;;;;;20.02;100.00;100465.22;5025720;28;20492;-88
2023/09/08 00:31:01;;;;;;;20.38;8.35;;;;;;;20.03;100.00;100480.28;5015380;28;20087;-88
2023/09/08 00:33:27;;;;;;;21.02;7.43;;;;;;;20.04;100.00;100471.22;5009215;28;20044;-89
2023/09/08 00:35:53;;;;;;;20.92;6.10;;;;;;;20.07;100.00;100471.63;5020266;28;20377;-89
2023/09/08 00:38:19;;;;;;;18.00;6.03;;;;;;;20.11;100.00;100473.91;5034035;28;20465;-89
2023/09/08 00:40:45;;;;;;;21.52;6.85;;;;;;;20.13;100.00;100474.53;5013499;28;20029;-88
2023/09/08 00:43:11;;;;;;;21.23;7.20;;;;;;;20.15;100.00;100480.50;5015908;28;20037;-91
2023/09/08 00:45:41;;;;;;;26.73;8.15;;;;;;;20.17;100.00;100476.59;5018162;28;20127;-86
2023/09/08 00:48:07;;;;;;;18.48;7.13;;;;;;;20.05;100.00;100484.41;5054469;28;20029;-89
2023/09/08 00:50:35;;;;;;;21.45;7.72;;;;;;;19.98;100.00;100482.75;5012721;28;20069;-89
2023/09/08 00:53:01;;;;;;;26.13;7.93;;;;;;;19.89;100.00;100472.19;4999091;28;20044;-88
2023/09/08 00:55:27;;;;;;;19.45;6.90;;;;;;;19.83;100.00;100473.88;5020050;28;20056;-89
2023/09/08 00:57:53;;;;;;;21.20;6.75;;;;;;;19.83;100.00;100478.38;5033273;28;20025;-88
2023/09/08 01:00:19;;;;;;;17.85;7.15;;;;;;;19.85;100.00;100484.38;5031031;28;20028;-88
2023/09/08 01:02:45;;;;;;;24.27;7.05;;;;;;;19.88;100.00;100473.25;5017330;28;20040;-88
2023/09/08 01:05:12;;;;;;;16.65;6.57;;;;;;;19.87;100.00;100476.97;5022706;28;20044;-89
2023/09/08 01:07:41;;;;;;;19.13;7.25;;;;;;;19.89;100.00;100484.81;5051776;28;20068;-88
2023/09/08 01:10:07;;;;;;;24.13;8.70;;;;;;;19.89;100.00;100479.44;5004253;28;20053;-89
2023/09/08 01:12:34;;;;;;;24.92;8.23;;;;;;;19.90;100.00;100476.56;5015227;28;20052;-88
2023/09/08 01:15:01;;;;;;;26.60;8.02;;;;;;;19.92;100.00;100471.78;5022168;28;20041;-88
2023/09/08 01:17:27;;;;;;;26.88;7.55;;;;;;;19.94;100.00;100477.78;5015554;28;20035;-88
2023/09/08 01:19:56;;;;;;;16.30;6.70;;;;;;;19.89;100.00;100476.75;5016993;28;20450;-88
2023/09/08 01:22:43;;;;;;;18.83;6.53;;;;;;;19.79;100.00;100469.13;5040623;28;20062;-88
2023/09/08 01:25:11;;;;;;;15.60;6.10;;;;;;;19.63;100.00;100467.66;5052739;28;20089;-88
2023/09/08 01:27:43;;;;;;;18.27;6.43;;;;;;;19.44;100.00;100472.78;5045679;28;20125;-88
2023/09/08 01:30:10;;;;;;;30.73;7.10;;;;;;;19.28;100.00;100469.44;5061487;28;20477;-89
2023/09/08 01:32:37;;;;;;;29.67;8.77;;;;;;;19.15;100.00;100467.56;5039009;28;20143;-88
2023/09/08 01:35:03;;;;;;;26.80;8.23;;;;;;;19.06;100.00;100468.72;5036615;28;20097;-89
2023/09/08 01:37:29;;;;;;;23.33;7.55;;;;;;;19.03;100.00;100466.44;5080380;28;20032;-88
2023/09/08 01:39:54;;;;;;;15.27;5.10;;;;;;;19.03;100.00;100469.13;5036071;28;20370;-88
2023/09/08 01:42:20;;;;;;;12.07;5.20;;;;;;;19.05;100.00;100472.41;5070418;28;20111;-89
2023/09/08 01:44:46;;;;;;;11.80;5.38;;;;;;;19.04;100.00;100466.25;5053297;28;20031;-89
2023/09/08 01:47:12;;;;;;;35.22;5.50;;;;;;;19.07;100.00;100457.81;5030870;28;20033;-88
2023/09/08 01:49:38;;;;;;;16.63;7.20;;;;;;;19.04;100.00;100460.06;5035278;28;20122;-88
2023/09/08 01:52:04;;;;;;;26.33;6.85;;;;;;;18.95;100.00;100452.19;5038316;28;20024;-88
2023/09/08 01:54:29;;;;;;;23.75;6.75;;;;;;;18.83;100.00;100468.00;5022050;28;20047;-89
2023/09/08 01:56:55;;;;;;;29.80;7.43;;;;;;;18.74;100.00;100455.81;5077449;28;20032;-88
2023/09/08 01:59:21;;;;;;;22.20;6.93;;;;;;;18.62;100.00;100463.56;5044103;28;20028;-89
2023/09/08 02:01:47;;;;;;;16.30;6.13;;;;;;;18.52;100.00;100471.94;5059266;28;20024;-91
2023/09/08 02:04:13;;;;;;;10.50;5.38;;;;;;;18.42;100.00;100458.09;5039969;28;20128;-89
2023/09/08 02:06:38;;;;;;;14.15;5.40;;;;;;;18.35;100.00;100468.75;5038385;28;20473;-88
2023/09/08 02:09:04;;;;;;;22.85;6.25;;;;;;;18.37;100.00;100473.91;5018637;28;20116;-89
2023/09/08 02:11:31;;;;;;;17.20;5.78;;;;;;;18.45;100.00;100481.78;5054232;28;20024;-89
2023/09/08 02:13:57;;;;;;;15.85;6.13;;;;;;;18.50;100.00;100486.56;5035244;28;20036;-89
2023/09/08 02:16:23;;;;;;;15.73;5.70;;;;;;;18.53;100.00;100483.50;5057363;28;20086;-88
2023/09/08 02:18:50;;;;;;;15.88;7.30;;;;;;;18.52;100.00;100482.66;5039045;28;20488;-89
2023/09/08 02:21:16;;;;;;;13.27;6.50;;;;;;;18.53;100.00;100476.28;5046726;28;20114;-89
2023/09/08 02:23:42;;;;;;;15.00;5.28;;;;;;;18.59;100.00;100480.03;5039511;28;20123;-88
2023/09/08 02:26:07;;;;;;;12.80;5.05;;;;;;;18.67;100.00;100481.72;5044570;28;20492;-87
2023/09/08 02:28:33;;;;;;;16.55;5.40;;;;;;;18.74;100.00;100473.72;5034105;28;20040;-87
2023/09/08 02:30:59;;;;;;;13.88;5.90;;;;;;;18.76;100.00;100474.34;5024907;28;20048;-88
2023/09/08 02:33:25;;;;;;;15.40;5.80;;;;;;;18.70;100.00;100476.78;5046708;28;20042;-88
2023/09/08 02:35:51;;;;;;;18.67;6.70;;;;;;;18.54;100.00;100469.91;5056487;28;20041;-87
2023/09/08 02:38:18;;;;;;;16.35;7.25;;;;;;;18.39;100.00;100477.22;5052114;28;20038;-88
2023/09/08 02:40:44;;;;;;;25.67;7.70;;;;;;;18.27;100.00;100482.31;5055902;28;20032;-89
2023/09/08 02:43:11;;;;;;;22.13;7.03;;;;;;;18.18;100.00;100473.59;5010828;28;20044;-89
2023/09/08 02:45:37;;;;;;;12.80;6.50;;;;;;;18.07;100.00;100472.22;5037685;28;20040;-88
2023/09/08 02:48:04;;;;;;;19.08;7.32;;;;;;;17.99;100.00;100473.19;5054440;28;20029;-89
2023/09/08 02:50:30;;;;;;;12.77;6.55;;;;;;;17.98;100.00;100467.03;5042951;28;20095;-89
2023/09/08 02:52:56;;;;;;;16.98;7.30;;;;;;;17.99;100.00;100462.50;5041310;28;20028;-88
2023/09/08 02:55:21;;;;;;;22.17;8.13;;;;;;;18.00;100.00;100458.00;5052140;28;20492;-88
2023/09/08 02:57:47;;;;;;;20.10;7.50;;;;;;;18.05;100.00;100471.59;5059196;28;20040;-88
2023/09/08 03:00:13;;;;;;;10.80;6.10;;;;;;;18.11;100.00;100473.50;5033027;28;20098;-88
2023/09/08 03:02:39;;;;;;;9.38;4.93;;;;;;;18.20;100.00;100468.88;5057079;28;20055;-89
2023/09/08 03:05:06;;;;;;;18.92;6.10;;;;;;;18.31;100.00;100472.84;5039749;28;20086;-88
2023/09/08 03:07:33;;;;;;;15.60;7.47;;;;;;;18.34;100.00;100467.94;5038755;28;20035;-88
2023/09/08 03:09:59;;;;;;;19.50;7.72;;;;;;;18.34;100.00;100469.78;5056679;28;20040;-88
2023/09/08 03:12:25;;;;;;;15.52;7.45;;;;;;;18.32;100.00;100467.31;5036242;28;20119;-88
2023/09/08 03:14:51;;;;;;;20.55;8.15;;;;;;;18.34;100.00;100472.47;5039853;28;20028;-88
2023/09/08 03:17:18;;;;;;;17.33;6.78;;;;;;;18.38;100.00;100473.72;5052140;28;20511;-89
2023/09/08 03:19:46;;;;;;;16.58;6.00;;;;;;;18.48;100.00;100462.66;5051439;28;20033;-89
2023/09/08 03:22:12;;;;;;;15.98;7.35;;;;;;;18.49;100.00;100460.81;5039978;28;20050;-89
2023/09/08 03:24:38;;;;;;;24.55;7.55;;;;;;;18.37;100.00;100450.66;5034595;28;20124;-89
2023/09/08 03:27:04;;;;;;;16.63;7.70;;;;;;;18.36;100.00;100459.72;5021594;28;20044;-89
2023/09/08 03:29:29;;;;;;;14.05;5.63;;;;;;;18.31;100.00;100457.63;5021781;28;20037;-89
2023/09/08 03:31:55;;;;;;;14.05;6.38;;;;;;;18.32;100.00;100467.31;5030765;28;20041;-88
2023/09/08 03:34:22;;;;;;;19.30;4.57;;;;;;;18.36;100.00;100465.06;5055717;28;20091;-89
2023/09/08 03:36:50;;;;;;;13.35;5.90;;;;;;;18.38;100.00;100456.84;5036287;28;20033;-88
2023/09/08 03:39:16;;;;;;;15.93;7.80;;;;;;;18.35;100.00;100455.38;5033203;28;20033;-88
2023/09/08 03:41:42;;;;;;;18.83;9.05;;;;;;;18.32;100.00;100459.28;5016235;28;20036;-88
2023/09/08 03:44:08;;;;;;;9.32;4.75;;;;;;;18.30;100.00;100466.66;5017234;28;20037;-88
2023/09/08 03:46:34;;;;;;;8.88;5.35;;;;;;;18.33;100.00;100460.91;5033034;28;20041;-88
2023/09/08 03:49:01;;;;;;;10.55;5.28;;;;;;;18.37;100.00;100458.69;5001159;28;20037;-89
2023/09/08 03:51:27;;;;;;;10.95;5.25;;;;;;;18.41;100.00;100457.25;5018626;28;20444;-88
2023/09/08 03:53:54;;;;;;;8.43;5.60;;;;;;;18.44;100.00;100462.22;5013104;28;20044;-89
2023/09/08 03:56:22;;;;;;;23.40;13.35;;;;;;;18.41;100.00;100462.63;5002919;28;20120;-89
2023/09/08 03:58:48;;;;;;;39.13;17.23;;;;;;;18.38;100.00;100464.88;5038161;28;20033;-89
2023/09/08 04:01:15;;;;;;;32.63;18.17;;;;;;;18.32;100.00;100463.78;5045842;28;20032;-89
2023/09/08 04:03:40;;;;;;;33.45;17.05;;;;;;;18.27;100.00;100469.72;5001569;28;20112;-89
2023/09/08 04:06:06;;;;;;;31.20;15.57;;;;;;;18.25;100.00;100468.28;5035030;28;20116;-89
2023/09/08 04:08:32;;;;;;;25.67;14.25;;;;;;;18.26;100.00;100467.25;5029295;28;20442;-90
2023/09/08 04:10:58;;;;;;;20.98;12.10;;;;;;;18.28;100.00;100470.56;5033483;28;20032;-89
2023/09/08 04:13:25;;;;;;;18.30;13.10;;;;;;;18.29;100.00;100470.38;5018262;28;20029;-88
2023/09/08 04:15:51;;;;;;;16.45;9.45;;;;;;;18.30;100.00;100474.69;5025037;28;20049;-88
2023/09/08 04:18:16;;;;;;;66.50;13.65;;;;;;;18.36;100.00;100478.47;5030366;28;20111;-89
2023/09/08 04:20:43;;;;;;;21.75;11.02;;;;;;;18.41;100.00;100469.84;5032401;28;20081;-89
2023/09/08 04:23:09;;;;;;;13.82;9.13;;;;;;;18.45;100.00;100465.72;5031152;28;20112;-88
2023/09/08 04:25:36;;;;;;;15.98;9.85;;;;;;;18.51;100.00;100469.47;5023459;28;20040;-86
2023/09/08 04:28:03;;;;;;;15.68;9.75;;;;;;;18.53;100.00;100462.06;4969344;28;20041;-89
2023/09/08 04:30:28;;;;;;;17.92;8.57;;;;;;;18.54;100.00;100466.44;5015720;28;20032;-89
2023/09/08 04:32:54;;;;;;;18.10;8.85;;;;;;;18.56;100.00;100467.88;5015525;28;20467;-88
2023/09/08 04:35:20;;;;;;;16.08;8.93;;;;;;;18.55;100.00;100460.03;5030761;28;20037;-89
2023/09/08 04:37:46;;;;;;;15.02;9.38;;;;;;;18.57;100.00;100466.03;5001922;28;20043;-88
2023/09/08 04:40:11;;;;;;;9.43;7.80;;;;;;;18.52;100.00;100471.94;5047195;28;20045;-88
2023/09/08 04:42:38;;;;;;;9.10;6.72;;;;;;;18.49;100.00;100471.53;5042582;28;20037;-89
2023/09/08 04:45:05;;;;;;;12.63;6.95;;;;;;;18.49;100.00;100477.69;5026731;28;20097;-89
2023/09/08 04:47:32;;;;;;;11.70;6.28;;;;;;;18.45;100.00;100476.44;5013251;28;20076;-89
2023/09/08 04:49:58;;;;;;;11.25;5.88;;;;;;;18.46;100.00;100476.25;5019473;28;20033;-89
2023/09/08 04:52:24;;;;;;;11.02;6.13;;;;;;;18.49;100.00;100474.22;5051668;28;20560;-89
2023/09/08 04:54:50;;;;;;;10.30;5.57;;;;;;;18.47;100.00;100469.06;5019024;28;20057;-89
2023/09/08 04:57:16;;;;;;;8.93;4.63;;;;;;;18.49;100.00;100463.50;5034602;28;20037;-87
2023/09/08 04:59:42;;;;;;;6.88;5.07;;;;;;;18.50;100.00;100471.34;5018610;28;20040;-89
2023/09/08 05:02:09;;;;;;;15.52;8.63;;;;;;;18.50;100.00;100475.84;5014951;28;20033;-89
2023/09/08 05:04:35;;;;;;;11.75;8.77;;;;;;;18.46;100.00;100473.56;5012079;28;20039;-89
2023/09/08 05:07:01;;;;;;;13.77;8.93;;;;;;;18.47;100.00;100471.72;5034040;28;20037;-89
2023/09/08 05:09:27;;;;;;;8.63;7.78;;;;;;;18.49;100.00;100460.81;5017990;28;20048;-89
2023/09/08 05:11:53;;;;;;;11.25;10.13;;;;;;;18.46;100.00;100460.19;4998772;28;20473;-89
2023/09/08 05:14:19;;;;;;;11.68;7.93;;;;;;;18.47;100.00;100458.34;5018706;28;20044;-89
2023/09/08 05:16:45;;;;;;;11.30;9.18;;;;;;;18.46;100.00;100465.53;5033497;28;20078;-89
2023/09/08 05:19:13;;;;;;;10.20;9.20;;;;;;;18.44;100.00;100458.75;5030572;28;20493;-88
2023/09/08 05:21:40;;;;;;;13.45;12.05;;;;;;;18.42;100.00;100460.78;5033144;28;20045;-89
2023/09/08 05:24:06;;;;;;;10.63;9.20;;;;;;;18.44;100.00;100464.91;5020904;28;20170;-89
2023/09/08 05:26:32;;;;;;;9.82;6.43;;;;;;;18.38;100.00;100471.03;5038569;28;20384;-89
2023/09/08 05:28:58;;;;;;;8.40;5.50;;;;;;;18.33;100.00;100471.63;5034399;28;20032;-89
2023/09/08 05:31:24;;;;;;;6.82;5.32;;;;;;;18.29;100.00;100467.69;5036718;28;20039;-87
2023/09/08 05:33:49;;;;;;;7.22;5.43;;;;;;;18.27;100.00;100474.28;5007941;28;20544;-89
2023/09/08 05:36:15;;;;;;;8.68;5.93;;;;;;;18.27;100.00;100477.75;5035505;28;20095;-89
2023/09/08 05:38:41;;;;;;;7.10;4.93;;;;;;;18.25;100.00;100473.63;5035321;28;20517;-89
2023/09/08 05:41:07;;;;;;;6.78;5.40;;;;;;;18.26;100.00;100464.56;5018443;28;20098;-89
2023/09/08 05:43:33;;;;;;;7.93;3.88;;;;;;;18.25;100.00;100471.75;5018931;28;20047;-89
2023/09/08 05:45:59;;;;;;;7.32;4.82;;;;;;;18.23;100.00;100471.16;5021281;28;20036;-87
2023/09/08 05:48:24;;;;;;;18.15;7.03;;;;;;;18.18;100.00;100476.25;5035704;28;20033;-89
2023/09/08 05:50:50;;;;;;;136.00;10.15;;;;;;;18.12;100.00;100479.72;5025352;28;20033;-89
2023/09/08 05:53:16;;;;;;;51.47;7.68;;;;;;;18.04;100.00;100478.81;5022922;28;20047;-89
2023/09/08 05:55:43;;;;;;;7.97;5.80;;;;;;;17.95;100.00;100474.59;5018385;28;20797;-89
2023/09/08 05:58:09;;;;;;;22.20;6.47;;;;;;;17.92;100.00;100475.81;5028858;28;20029;-89
2023/09/08 06:00:34;;;;;;;136.13;8.15;;;;;;;17.91;100.00;100479.53;4953854;28;20037;-89
2023/09/08 06:03:00;;;;;;;49.00;5.88;;;;;;;17.89;100.00;100476.19;4994520;28;20211;-89
2023/09/08 06:05:26;;;;;;;84.07;5.90;;;;;;;17.88;100.00;100479.06;5048684;28;20120;-89
2023/09/08 06:07:53;;;;;;;84.18;5.95;;;;;;;17.90;100.00;100471.69;5010798;28;20088;-89
2023/09/08 06:10:19;;;;;;;17.27;4.50;;;;;;;17.89;100.00;100476.19;5015159;28;20064;-89
2023/09/08 06:12:45;;;;;;;11.82;5.38;;;;;;;17.89;100.00;100481.53;5037915;28;20067;-89
2023/09/08 06:15:11;;;;;;;16.95;4.97;;;;;;;17.87;100.00;100475.56;5038141;28;20056;-89
2023/09/08 06:17:37;;;;;;;174.20;7.82;;;;;;;17.81;100.00;100493.19;5005264;28;20063;-88
2023/09/08 06:20:03;;;;;;;165.50;8.52;;;;;;;17.63;100.00;100490.97;5024801;28;20481;-89
2023/09/08 06:22:29;;;;;;;30.55;7.65;;;;;;;17.53;100.00;100490.47;5009241;28;20032;-89
2023/09/08 06:24:55;;;;;;;28.33;7.82;;;;;;;17.48;100.00;100496.38;5067985;28;20483;-90
2023/09/08 06:27:20;;;;;;;129.55;12.00;;;;;;;17.47;100.00;100500.06;5021020;28;20032;-89
2023/09/08 06:29:46;;;;;;;108.90;10.73;;;;;;;17.45;100.00;100499.41;5060145;28;20032;-92
2023/09/08 06:32:14;;;;;;;20.67;11.73;;;;;;;17.42;100.00;100499.78;5036102;28;20033;-92
2023/09/08 06:34:43;;;;;;;11.00;7.65;;;;;;;17.47;100.00;100505.41;5076097;28;20039;-90
2023/09/08 06:37:09;;;;;;;9.25;7.53;;;;;;;17.47;100.00;100514.22;5033553;28;20036;-89
2023/09/08 06:39:34;;;;;;;98.53;10.43;;;;;;;17.52;100.00;100512.84;5030336;28;20035;-89
2023/09/08 06:42:02;;;;;;;37.13;9.85;;;;;;;17.56;100.00;100508.78;5014843;28;20032;-89
2023/09/08 06:44:28;;;;;;;14.88;9.35;;;;;;;17.62;100.00;100516.03;5054632;28;20029;-92
2023/09/08 06:46:54;;;;;;;9.30;8.60;;;;;;;17.68;100.00;100509.94;5058893;28;20041;-91
2023/09/08 06:49:21;;;;;;;9.45;8.65;;;;;;;17.71;100.00;100501.53;5040877;28;20472;-88
2023/09/08 06:51:48;;;;;;;10.90;9.90;;;;;;;17.80;100.00;100512.94;5048020;28;20463;-89
2023/09/08 06:54:15;;;;;;;12.00;9.32;;;;;;;17.84;100.00;100505.34;5049676;28;20064;-88
2023/09/08 06:56:43;;;;;;;10.98;9.90;;;;;;;17.86;100.00;100511.34;5067888;28;20364;-89
2023/09/08 06:59:08;;;;;;;15.73;10.07;;;;;;;17.89;100.00;100508.28;5021987;28;20078;-89
2023/09/08 07:01:35;;;;;;;17.33;11.80;;;;;;;17.91;100.00;100514.28;5033689;28;20043;-89
2023/09/08 07:04:01;;;;;;;19.92;11.88;;;;;;;17.95;100.00;100520.03;5033946;28;20040;-89
2023/09/08 07:06:28;;;;;;;14.93;11.10;;;;;;;17.97;100.00;100520.69;5053133;28;20036;-89
2023/09/08 07:08:54;;;;;;;14.75;9.77;;;;;;;18.03;100.00;100517.25;5048633;28;20031;-88
2023/09/08 07:11:21;;;;;;;12.18;10.70;;;;;;;18.13;100.00;100516.13;5041712;28;20442;-89
2023/09/08 07:13:47;;;;;;;14.48;10.80;;;;;;;18.23;100.00;100517.44;5035088;28;20416;-89
2023/09/08 07:16:13;;;;;;;13.43;11.48;;;;;;;18.33;100.00;100521.66;5074726;28;20130;-89
2023/09/08 07:18:39;;;;;;;16.42;12.55;;;;;;;18.37;100.00;100522.91;5051224;28;20572;-89
2023/09/08 07:21:07;;;;;;;13.23;10.93;;;;;;;18.42;100.00;100527.69;5032700;28;20040;-89
2023/09/08 07:23:33;;;;;;;14.13;10.98;;;;;;;18.51;100.00;100529.19;5047950;28;20094;-89
2023/09/08 07:25:59;;;;;;;14.63;10.65;;;;;;;18.58;100.00;100532.75;5070577;28;20032;-88
2023/09/08 07:28:28;;;;;;;13.77;10.52;;;;;;;18.67;100.00;100535.25;5034195;28;20095;-89
2023/09/08 07:31:02;;;;;;;12.90;9.80;;;;;;;18.80;100.00;100534.50;5050550;28;20086;-88
2023/09/08 07:33:29;;;;;;;16.80;12.10;;;;;;;18.83;100.00;100534.97;5050585;28;20123;-89
2023/09/08 07:35:54;;;;;;;17.63;12.32;;;;;;;18.89;100.00;100540.56;5040209;28;20127;-88
2023/09/08 07:38:20;;;;;;;12.07;9.85;;;;;;;18.92;100.00;100538.28;5019399;28;20039;-88
2023/09/08 07:40:46;;;;;;;15.30;10.43;;;;;;;19.02;100.00;100542.44;5039047;28;20048;-89
2023/09/08 07:43:12;;;;;;;25.83;12.80;;;;;;;19.09;100.00;100541.53;5047920;28;20055;-88
2023/09/08 07:45:40;;;;;;;19.73;12.07;;;;;;;19.14;100.00;100542.75;5030464;28;20654;-88
2023/09/08 07:48:06;;;;;;;22.15;11.80;;;;;;;19.19;100.00;100537.63;5044254;28;20020;-88
2023/09/08 07:50:32;;;;;;;23.00;13.02;;;;;;;19.23;100.00;100530.00;5046882;28;20032;-88
2023/09/08 07:52:58;;;;;;;20.48;13.23;;;;;;;19.24;100.00;100529.81;5053350;28;20047;-88
2023/09/08 07:55:28;;;;;;;18.27;11.57;;;;;;;19.29;100.00;100539.94;5031547;28;20036;-89
2023/09/08 07:57:55;;;;;;;16.63;11.57;;;;;;;19.29;100.00;100540.75;5049558;28;20065;-88
2023/09/08 08:00:20;;;;;;;24.83;12.02;;;;;;;19.35;100.00;100541.81;5048067;28;20037;-91
2023/09/08 08:02:49;;;;;;;13.57;10.65;;;;;;;19.44;100.00;100545.16;5048406;28;20074;-88
2023/09/08 08:05:15;;;;;;;18.55;11.23;;;;;;;19.48;100.00;100537.53;5050861;28;20028;-88
2023/09/08 08:07:43;;;;;;;16.38;10.68;;;;;;;19.62;100.00;100549.13;5049464;28;20060;-88
2023/09/08 08:10:09;;;;;;;13.55;9.98;;;;;;;19.70;100.00;100541.72;5046677;28;20238;-88
2023/09/08 08:12:36;;;;;;;18.42;11.30;;;;;;;19.81;100.00;100537.59;5056373;28;20028;-88
2023/09/08 08:15:02;;;;;;;17.70;11.63;;;;;;;19.87;100.00;100544.03;5038649;28;20477;-88
2023/09/08 08:17:29;;;;;;;18.70;10.55;;;;;;;19.95;100.00;100543.00;5050217;28;20091;-88
2023/09/08 08:19:58;;;;;;;26.63;12.57;;;;;;;20.05;100.00;100542.63;5057736;28;20070;-88
2023/09/08 08:22:25;;;;;;;22.38;12.73;;;;;;;20.11;100.00;100540.97;5034119;28;20041;-88
2023/09/08 08:24:50;;;;;;;21.85;11.25;;;;;;;20.15;100.00;100543.03;5053064;28;20033;-88
2023/09/08 08:27:16;;;;;;;23.67;12.60;;;;;;;20.22;100.00;100540.38;5035447;28;20040;-87
2023/09/08 08:29:42;;;;;;;19.95;11.52;;;;;;;20.30;100.00;100533.97;5051244;28;20036;-88
2023/09/08 08:32:08;;;;;;;22.17;12.75;;;;;;;20.35;100.00;100542.22;5038676;28;20124;-88
2023/09/08 08:34:33;;;;;;;25.80;12.07;;;;;;;20.42;100.00;100539.50;5037155;28;20512;-87
2023/09/08 08:36:59;;;;;;;24.48;12.18;;;;;;;20.49;100.00;100548.41;5050905;28;20051;-87
2023/09/08 08:39:25;;;;;;;25.30;13.43;;;;;;;20.56;100.00;100541.16;5049734;28;20475;-87
2023/09/08 08:41:51;;;;;;;18.70;11.93;;;;;;;20.62;100.00;100544.03;5050210;28;20387;-86
2023/09/08 08:44:18;;;;;;;23.63;12.20;;;;;;;20.67;100.00;100537.00;5072017;28;20028;-86
2023/09/08 08:46:46;;;;;;;18.08;11.43;;;;;;;20.75;100.00;100529.78;5036633;28;20450;-86
2023/09/08 08:49:15;;;;;;;19.20;12.02;;;;;;;20.82;100.00;100528.72;5049491;28;20135;-87
2023/09/08 08:51:44;;;;;;;18.92;11.20;;;;;;;20.88;100.00;100527.03;5050222;28;20475;-87
2023/09/08 08:54:12;;;;;;;24.85;11.73;;;;;;;20.90;100.00;100532.19;5027312;28;20046;-87
2023/09/08 08:56:38;;;;;;;17.63;10.55;;;;;;;20.94;100.00;100539.66;5070211;28;20028;-86
2023/09/08 08:59:05;;;;;;;15.77;9.85;;;;;;;20.99;100.00;100543.59;5031987;28;20057;-87
2023/09/08 09:01:32;;;;;;;21.08;10.73;;;;;;;21.05;100.00;100537.38;5011392;28;20124;-86
2023/09/08 09:03:58;;;;;;;15.27;10.55;;;;;;;21.12;100.00;100542.72;5038025;28;20024;-86
2023/09/08 09:06:24;;;;;;;21.95;10.98;;;;;;;21.18;100.00;100537.31;5021321;28;20412;-86
2023/09/08 09:08:50;;;;;;;21.77;10.82;;;;;;;21.23;100.00;100533.97;5049842;28;20412;-87
2023/09/08 09:11:16;;;;;;;18.45;10.07;;;;;;;21.31;100.00;100535.59;5058279;28;20089;-86
2023/09/08 09:13:41;;;;;;;18.15;11.52;;;;;;;21.36;100.00;100534.97;5045790;28;20415;-87
2023/09/08 09:16:10;;;;;;;20.98;10.63;;;;;;;21.40;100.00;100533.50;5067938;28;20305;-87
2023/09/08 09:18:55;;;;;;;22.90;11.27;;;;;;;21.52;100.00;100539.00;5031214;28;20039;-87
2023/09/08 09:21:22;;;;;;;16.55;11.70;;;;;;;21.54;100.00;100536.94;5041902;28;20045;-87
2023/09/08 09:23:48;;;;;;;25.08;12.60;;;;;;;21.60;100.00;100537.91;5035239;28;20033;-87
2023/09/08 09:26:23;;;;;;;19.52;11.30;;;;;;;21.68;100.00;100537.69;5045950;28;20497;-87
2023/09/08 09:28:51;;;;;;;20.45;11.68;;;;;;;21.68;100.00;100537.69;5041361;28;20247;-87
2023/09/08 09:31:18;;;;;;;20.48;11.77;;;;;;;21.74;100.00;100534.13;5004531;28;20044;-86
2023/09/08 09:33:45;;;;;;;31.73;12.05;;;;;;;21.83;100.00;100540.09;5014164;28;20067;-87
2023/09/08 09:36:20;;;;;;;26.00;11.73;;;;;;;21.94;100.00;100538.56;5048612;28;20020;-86
2023/09/08 09:38:47;;;;;;;26.92;11.18;;;;;;;21.98;100.00;100533.59;5036575;28;20550;-86
2023/09/08 09:41:13;;;;;;;23.92;11.27;;;;;;;22.03;100.00;100539.97;5042454;28;20551;-86
2023/09/08 09:43:39;;;;;;;28.45;12.05;;;;;;;22.11;100.00;100543.41;5043627;28;20029;-86
2023/09/08 09:46:08;;;;;;;15.77;10.68;;;;;;;22.20;100.00;100541.28;5035826;28;20036;-87
2023/09/08 09:48:35;;;;;;;29.42;12.88;;;;;;;22.29;100.00;100545.34;5019967;28;20119;-86
2023/09/08 09:51:19;;;;;;;19.60;11.25;;;;;;;22.38;100.00;100532.41;5031740;28;20034;-86
2023/09/08 09:53:45;;;;;;;28.40;11.95;;;;;;;22.42;100.00;100536.31;5041097;28;20489;-86
2023/09/08 09:56:12;;;;;;;19.30;10.52;;;;;;;22.51;100.00;100536.84;5058994;28;20430;-86
2023/09/08 09:58:38;;;;;;;16.98;11.65;;;;;;;22.54;100.00;100537.25;5049695;28;20024;-86
2023/09/08 10:01:05;;;;;;;20.30;11.45;;;;;;;22.61;100.00;100534.53;5053277;28;20151;-87
2023/09/08 10:03:33;;;;;;;23.77;12.02;;;;;;;22.62;100.00;100527.25;5006669;28;20082;-87
2023/09/08 10:05:59;;;;;;;25.45;12.85;;;;;;;22.63;100.00;100528.91;5032244;28;20362;-87
2023/09/08 10:08:25;;;;;;;18.23;11.50;;;;;;;22.65;100.00;100535.72;5042248;28;20033;-87
2023/09/08 10:10:51;;;;;;;23.70;11.60;;;;;;;22.74;100.00;100540.81;5010498;28;20386;-88
2023/09/08 10:13:30;;;;;;;25.40;11.68;;;;;;;22.90;100.00;100547.50;5015599;28;20166;-88
2023/09/08 10:15:58;;;;;;;19.05;11.40;;;;;;;22.94;100.00;100548.66;5032443;28;20033;-87
2023/09/08 10:18:24;;;;;;;19.55;11.45;;;;;;;22.97;100.00;100544.69;5031297;28;20086;-87
2023/09/08 10:20:53;;;;;;;20.08;11.38;;;;;;;23.04;100.00;100546.28;5048954;28;20504;-87
2023/09/08 10:23:27;;;;;;;26.15;10.52;;;;;;;23.20;100.00;100549.41;5045017;28;20147;-87
2023/09/08 10:25:59;;;;;;;18.73;11.27;;;;;;;23.27;100.00;100549.31;5040172;28;20105;-88
2023/09/08 10:28:26;;;;;;;25.85;12.00;;;;;;;23.34;100.00;100547.38;5030289;28;20382;-88
2023/09/08 10:30:53;;;;;;;22.88;10.27;;;;;;;23.37;100.00;100546.91;5048987;28;20083;-87
2023/09/08 10:33:19;;;;;;;22.05;10.43;;;;;;;23.46;100.00;100544.75;5051461;28;20474;-88
2023/09/08 10:35:46;;;;;;;28.90;10.82;;;;;;;23.49;100.00;100544.28;4996399;28;20051;-87
2023/09/08 10:38:26;;;;;;;20.90;10.35;;;;;;;23.54;100.00;100549.00;4998290;28;20032;-88
2023/09/08 10:40:53;;;;;;;23.42;9.85;;;;;;;23.58;100.00;100549.38;5026499;28;20123;-88
2023/09/08 10:43:19;;;;;;;30.73;11.18;;;;;;;23.60;100.00;100540.00;5003552;28;20029;-88
2023/09/08 10:45:46;;;;;;;20.95;10.25;;;;;;;23.71;100.00;100545.66;5029669;28;20494;-87
2023/09/08 10:48:15;;;;;;;26.10;11.38;;;;;;;23.75;100.00;100541.44;5030575;28;20159;-88
2023/09/08 10:50:42;;;;;;;23.63;11.07;;;;;;;23.87;100.00;100546.88;5031165;28;20106;-86
2023/09/08 10:53:18;;;;;;;22.33;10.50;;;;;;;23.94;100.00;100538.69;5030409;28;20036;-86
2023/09/08 10:55:52;;;;;;;26.00;11.48;;;;;;;23.98;100.00;100545.25;5024172;28;20402;-88
2023/09/08 10:58:19;;;;;;;24.10;9.85;;;;;;;24.05;100.00;100543.25;5030379;28;20389;-87
2023/09/08 11:00:50;;;;;;;23.80;10.05;;;;;;;24.15;100.00;100537.31;4999351;28;20052;-88
2023/09/08 11:03:27;;;;;;;27.95;9.25;;;;;;;24.22;100.00;100542.63;5047759;28;20434;-87
2023/09/08 11:05:53;;;;;;;24.00;9.23;;;;;;;24.22;100.00;100534.50;5012225;28;20434;-87